createdAt,value
2019-01-16T00:00:30.101Z,7.70
2019-01-16T00:03:10.596Z,9.00
2019-01-16T00:05:41.511Z,10.83
2019-01-16T00:08:09.846Z,7.80
2019-01-16T00:10:56.428Z,11.00
2019-01-16T00:13:36.857Z,9.60
2019-01-16T00:16:05.250Z,11.53
2019-01-16T00:18:39.691Z,9.87
2019-01-16T00:21:24.616Z,8.63
2019-01-16T00:24:09.900Z,13.23
2019-01-16T00:26:38.290Z,12.30
2019-01-16T00:29:12.703Z,12.03
2019-01-16T00:31:41.108Z,14.43
2019-01-16T00:34:09.446Z,16.07
2019-01-16T00:36:50.791Z,19.17
2019-01-16T00:39:24.856Z,11.77
2019-01-16T00:41:53.165Z,9.77
2019-01-16T00:44:24.733Z,6.97
2019-01-16T00:46:55.836Z,9.07
2019-01-16T00:49:42.104Z,8.73
2019-01-16T00:52:10.440Z,8.13
2019-01-16T00:54:38.932Z,7.43
2019-01-16T00:57:09.870Z,12.33
2019-01-16T00:59:38.271Z,9.57
2019-01-16T01:02:24.031Z,8.50
2019-01-16T01:04:55.555Z,9.37
2019-01-16T01:07:23.861Z,9.37
2019-01-16T01:09:52.191Z,8.93
2019-01-16T01:12:35.599Z,7.97
2019-01-16T01:15:05.212Z,7.30
2019-01-16T01:17:39.613Z,7.03
2019-01-16T01:20:08.780Z,4.73
2019-01-16T01:22:46.368Z,8.10
2019-01-16T01:25:24.617Z,10.00
2019-01-16T01:27:52.914Z,7.87
2019-01-16T01:30:21.283Z,6.53
2019-01-16T01:33:05.071Z,6.80
2019-01-16T01:35:33.423Z,5.70
2019-01-16T01:38:04.576Z,6.23
2019-01-16T01:40:48.120Z,4.60
2019-01-16T01:43:19.225Z,5.10
2019-01-16T01:45:50.523Z,4.40
2019-01-16T01:48:21.906Z,5.40
2019-01-16T01:50:52.755Z,5.30
2019-01-16T01:53:21.093Z,6.13
2019-01-16T01:56:07.232Z,6.50
2019-01-16T01:58:38.392Z,8.43
2019-01-16T02:01:23.323Z,7.43
2019-01-16T02:04:07.069Z,8.73
2019-01-16T02:06:52.162Z,7.40
2019-01-16T02:09:26.582Z,6.93
2019-01-16T02:11:54.959Z,6.57
2019-01-16T02:14:26.287Z,9.07
2019-01-16T02:16:54.646Z,9.03
2019-01-16T02:19:25.946Z,9.57
2019-01-16T02:22:06.559Z,8.93
2019-01-16T02:24:34.951Z,8.03
2019-01-16T02:27:09.136Z,9.27
2019-01-16T02:29:46.328Z,8.30
2019-01-16T02:32:17.692Z,10.10
2019-01-16T02:34:51.739Z,9.30
2019-01-16T02:37:23.368Z,10.13
2019-01-16T02:39:51.679Z,10.80
2019-01-16T02:42:31.970Z,8.87
2019-01-16T02:45:00.366Z,10.00
2019-01-16T02:47:37.775Z,10.70
2019-01-16T02:50:10.467Z,13.20
2019-01-16T02:52:54.984Z,14.93
2019-01-16T02:55:39.663Z,20.40
2019-01-16T02:58:14.406Z,17.50
2019-01-16T03:00:42.675Z,19.27
2019-01-16T03:03:16.833Z,20.57
2019-01-16T03:06:01.660Z,19.10
2019-01-16T03:08:32.958Z,18.10
2019-01-16T03:11:03.815Z,18.70
2019-01-16T03:13:33.242Z,20.20
2019-01-16T03:16:10.232Z,20.73
2019-01-16T03:19:04.326Z,30.40
2019-01-16T03:21:44.073Z,28.43
2019-01-16T03:24:30.424Z,31.90
2019-01-16T03:27:10.922Z,30.40
2019-01-16T03:29:45.423Z,32.23
2019-01-16T03:32:16.309Z,36.00
2019-01-16T03:34:50.675Z,42.53
2019-01-16T03:37:19.050Z,36.93
2019-01-16T03:40:02.573Z,42.50
2019-01-16T03:42:36.814Z,39.00
2019-01-16T03:45:09.988Z,32.87
2019-01-16T03:47:38.309Z,26.07
2019-01-16T03:50:11.319Z,19.47
2019-01-16T03:52:51.283Z,17.60
2019-01-16T03:55:37.473Z,15.87
2019-01-16T03:58:11.449Z,15.77
2019-01-16T04:00:39.776Z,15.97
2019-01-16T04:03:08.099Z,16.87
2019-01-16T04:05:39.414Z,15.40
2019-01-16T04:08:07.762Z,17.97
2019-01-16T04:10:51.119Z,19.97
2019-01-16T04:13:25.523Z,23.73
2019-01-16T04:15:59.704Z,19.37
2019-01-16T04:18:28.036Z,19.53
2019-01-16T04:21:13.012Z,19.83
2019-01-16T04:23:43.851Z,19.27
2019-01-16T04:26:15.081Z,18.70
2019-01-16T04:28:43.417Z,26.10
2019-01-16T04:31:17.250Z,21.17
2019-01-16T04:34:00.773Z,18.57
2019-01-16T04:36:37.622Z,16.33
2019-01-16T04:39:24.732Z,16.00
2019-01-16T04:41:56.045Z,16.43
2019-01-16T04:44:27.275Z,20.67
2019-01-16T04:46:58.619Z,13.57
2019-01-16T04:49:30.256Z,15.43
2019-01-16T04:52:03.151Z,11.57
2019-01-16T04:54:46.406Z,13.03
2019-01-16T04:57:26.562Z,12.07
2019-01-16T04:59:54.919Z,18.63
2019-01-16T05:02:23.216Z,20.60
2019-01-16T05:05:09.424Z,26.90
2019-01-16T05:07:37.729Z,18.10
2019-01-16T05:10:15.122Z,14.97
2019-01-16T05:13:00.097Z,13.87
2019-01-16T05:15:31.438Z,16.93
2019-01-16T05:18:02.441Z,14.03
2019-01-16T05:20:47.663Z,14.80
2019-01-16T05:23:16.033Z,12.57
2019-01-16T05:25:47.178Z,12.20
2019-01-16T05:28:32.041Z,12.33
2019-01-16T05:31:00.378Z,17.13
2019-01-16T05:33:31.441Z,15.23
2019-01-16T05:35:59.829Z,9.90
2019-01-16T05:38:37.296Z,7.53
2019-01-16T05:41:11.202Z,7.67
2019-01-16T05:43:41.981Z,6.13
2019-01-16T05:46:28.384Z,10.27
2019-01-16T05:48:56.667Z,15.60
2019-01-16T05:51:30.862Z,9.20
2019-01-16T05:54:14.531Z,5.80
2019-01-16T05:56:51.969Z,4.80
2019-01-16T05:59:20.282Z,4.77
2019-01-16T06:02:03.404Z,4.43
2019-01-16T06:04:37.249Z,4.87
2019-01-16T06:07:05.553Z,5.10
2019-01-16T06:09:33.917Z,6.03
2019-01-16T06:12:02.234Z,4.53
2019-01-16T06:14:36.543Z,5.23
2019-01-16T06:17:04.851Z,7.07
2019-01-16T06:19:38.892Z,6.20
2019-01-16T06:22:24.215Z,7.40
2019-01-16T06:25:01.759Z,6.57
2019-01-16T06:27:39.351Z,6.70
2019-01-16T06:30:11.483Z,6.03
2019-01-16T06:32:49.357Z,7.57
2019-01-16T06:35:23.362Z,8.47
2019-01-16T06:37:57.381Z,7.67
2019-01-16T06:40:28.264Z,7.17
2019-01-16T06:42:56.499Z,8.87
2019-01-16T06:45:34.915Z,10.33
2019-01-16T06:48:20.053Z,8.67
2019-01-16T06:50:53.892Z,6.53
2019-01-16T06:53:31.084Z,8.27
2019-01-16T06:56:05.072Z,7.47
2019-01-16T06:58:36.200Z,8.63
2019-01-16T07:01:13.537Z,8.47
2019-01-16T07:03:58.156Z,8.53
2019-01-16T07:06:26.458Z,7.90
2019-01-16T07:09:11.100Z,7.40
2019-01-16T07:11:45.457Z,7.03
2019-01-16T07:14:16.581Z,6.63
2019-01-16T07:16:50.756Z,9.93
2019-01-16T07:19:25.293Z,12.87
2019-01-16T07:22:10.438Z,9.80
2019-01-16T07:24:53.503Z,10.17
2019-01-16T07:27:38.334Z,7.83
2019-01-16T07:30:13.168Z,6.57
2019-01-16T07:32:41.407Z,7.23
2019-01-16T07:35:26.357Z,7.03
2019-01-16T07:38:03.263Z,7.63
2019-01-16T07:40:37.383Z,8.07
2019-01-16T07:43:08.504Z,7.53
2019-01-16T07:45:42.464Z,7.27
2019-01-16T07:48:25.960Z,5.97
2019-01-16T07:51:10.806Z,5.57
2019-01-16T07:53:48.315Z,6.57
2019-01-16T07:56:16.639Z,7.73
2019-01-16T07:59:01.262Z,6.37
2019-01-16T08:01:32.580Z,5.83
2019-01-16T08:04:04.956Z,6.80
2019-01-16T08:06:33.221Z,5.80
2019-01-16T08:09:04.039Z,6.40
2019-01-16T08:11:32.675Z,5.77
2019-01-16T08:14:09.963Z,5.73
2019-01-16T08:16:47.281Z,5.40
2019-01-16T08:19:32.252Z,5.80
2019-01-16T08:22:03.602Z,5.83
2019-01-16T08:24:46.821Z,6.70
2019-01-16T08:27:21.069Z,7.97
2019-01-16T08:29:51.912Z,7.50
2019-01-16T08:32:26.226Z,8.37
2019-01-16T08:34:54.510Z,7.93
2019-01-16T08:37:22.750Z,9.17
2019-01-16T08:39:52.191Z,8.80
2019-01-16T08:42:29.127Z,8.00
2019-01-16T08:45:09.297Z,7.73
2019-01-16T08:47:37.959Z,7.83
2019-01-16T08:50:22.503Z,10.77
2019-01-16T08:52:50.870Z,8.77
2019-01-16T08:55:28.577Z,8.47
2019-01-16T08:57:56.795Z,7.30
2019-01-16T09:00:25.105Z,9.53
2019-01-16T09:03:05.529Z,11.03
2019-01-16T09:05:42.642Z,7.33
2019-01-16T09:08:27.878Z,9.20
2019-01-16T09:10:56.188Z,9.80
2019-01-16T09:13:27.372Z,10.37
2019-01-16T09:16:01.326Z,9.43
2019-01-16T09:18:46.288Z,8.90
2019-01-16T09:21:14.610Z,7.90
2019-01-16T09:24:00.137Z,8.57
2019-01-16T09:26:28.414Z,8.47
2019-01-16T09:29:11.927Z,8.57
2019-01-16T09:31:58.437Z,8.13
2019-01-16T09:34:29.448Z,7.87
2019-01-16T09:37:00.689Z,8.57
2019-01-16T09:39:40.845Z,8.83
2019-01-16T09:42:20.917Z,8.67
2019-01-16T09:44:52.220Z,6.80
2019-01-16T09:47:29.144Z,6.67
2019-01-16T09:49:57.366Z,6.77
2019-01-16T09:52:40.581Z,7.83
2019-01-16T09:55:14.492Z,7.97
2019-01-16T09:57:57.518Z,7.60
2019-01-16T10:00:25.942Z,7.27
2019-01-16T10:03:12.900Z,6.27
2019-01-16T10:05:41.148Z,6.33
2019-01-16T10:08:11.963Z,7.47
2019-01-16T10:10:40.255Z,6.33
2019-01-16T10:13:11.614Z,6.70
2019-01-16T10:15:39.953Z,5.63
2019-01-16T10:18:11.689Z,4.73
2019-01-16T10:20:56.051Z,4.33
2019-01-16T10:23:24.487Z,4.00
2019-01-16T10:25:52.988Z,4.43
2019-01-16T10:28:21.462Z,5.60
2019-01-16T10:31:06.269Z,4.80
2019-01-16T10:33:46.436Z,5.57
2019-01-16T10:36:26.864Z,5.83
2019-01-16T10:39:00.766Z,5.70
2019-01-16T10:41:41.040Z,6.07
2019-01-16T10:44:13.419Z,6.90
2019-01-16T10:46:53.914Z,7.37
2019-01-16T10:49:25.443Z,9.03
2019-01-16T10:52:02.807Z,9.67
2019-01-16T10:54:47.742Z,10.03
2019-01-16T10:57:34.057Z,10.90
2019-01-16T11:00:08.035Z,10.53
2019-01-16T11:02:37.573Z,12.90
2019-01-16T11:05:11.099Z,12.87
2019-01-16T11:07:39.588Z,14.40
2019-01-16T11:10:13.927Z,15.13
2019-01-16T11:12:42.305Z,15.50
2019-01-16T11:15:16.544Z,14.97
2019-01-16T11:17:47.445Z,16.67
2019-01-16T11:20:24.733Z,16.90
2019-01-16T11:22:55.808Z,16.33
2019-01-16T11:25:41.092Z,16.00
2019-01-16T11:28:12.452Z,16.83
2019-01-16T11:30:55.925Z,16.53
2019-01-16T11:33:30.383Z,16.67
2019-01-16T11:36:02.720Z,17.50
2019-01-16T11:38:37.007Z,17.70
2019-01-16T11:41:22.053Z,15.77
2019-01-16T11:43:50.380Z,15.90
2019-01-16T11:46:27.393Z,15.33
2019-01-16T11:49:07.935Z,14.57
2019-01-16T11:51:40.844Z,13.90
2019-01-16T11:54:09.096Z,15.87
2019-01-16T11:56:43.518Z,16.63
2019-01-16T11:59:29.193Z,16.07
2019-01-16T12:02:09.542Z,16.17
2019-01-16T12:04:40.586Z,17.07
2019-01-16T12:07:08.882Z,17.20
2019-01-16T12:09:53.799Z,18.37
2019-01-16T12:12:30.706Z,17.87
2019-01-16T12:15:01.828Z,19.37
2019-01-16T12:17:35.808Z,18.27
2019-01-16T12:20:07.052Z,21.23
2019-01-16T12:22:44.125Z,23.23
2019-01-16T12:25:12.671Z,22.93
2019-01-16T12:27:57.839Z,20.60
2019-01-16T12:30:35.424Z,20.27
2019-01-16T12:33:03.774Z,20.33
2019-01-16T12:35:37.731Z,20.27
2019-01-16T12:38:06.085Z,19.93
2019-01-16T12:40:43.224Z,20.27
2019-01-16T12:43:23.788Z,21.27
2019-01-16T12:45:52.083Z,22.63
2019-01-16T12:48:23.151Z,22.30
2019-01-16T12:50:51.394Z,22.87
2019-01-16T12:53:22.731Z,21.77
2019-01-16T12:55:50.981Z,21.83
2019-01-16T12:58:25.109Z,22.47
2019-01-16T13:00:53.331Z,21.50
2019-01-16T13:03:21.636Z,22.53
2019-01-16T13:06:04.756Z,23.20
2019-01-16T13:08:36.245Z,22.10
2019-01-16T13:11:07.682Z,20.83
2019-01-16T13:13:38.728Z,20.93
2019-01-16T13:16:07.025Z,20.67
2019-01-16T13:18:38.358Z,22.27
2019-01-16T13:21:06.647Z,19.90
2019-01-16T13:23:50.087Z,21.40
2019-01-16T13:26:21.098Z,21.47
2019-01-16T13:29:06.233Z,21.90
2019-01-16T13:31:40.660Z,20.60
2019-01-16T13:34:08.944Z,21.40
2019-01-16T13:36:43.244Z,20.47
2019-01-16T13:39:14.375Z,22.23
2019-01-16T13:41:42.887Z,22.47
2019-01-16T13:44:14.013Z,21.27
2019-01-16T13:46:42.344Z,21.93
2019-01-16T13:49:19.983Z,22.43
2019-01-16T13:52:05.035Z,21.07
2019-01-16T13:54:44.985Z,19.37
2019-01-16T13:57:13.372Z,20.93
2019-01-16T13:59:53.685Z,22.57
2019-01-16T14:02:28.120Z,20.40
2019-01-16T14:05:02.494Z,23.53
2019-01-16T14:07:33.662Z,22.23
2019-01-16T14:10:01.971Z,21.17
2019-01-16T14:12:45.372Z,20.97
2019-01-16T14:15:19.577Z,20.97
2019-01-16T14:17:47.880Z,20.70
2019-01-16T14:20:31.295Z,21.33
2019-01-16T14:23:05.789Z,19.27
2019-01-16T14:25:40.763Z,21.13
2019-01-16T14:28:09.061Z,22.70
2019-01-16T14:30:54.081Z,19.57
2019-01-16T14:33:31.608Z,20.30
2019-01-16T14:36:00.058Z,20.70
2019-01-16T14:38:28.596Z,19.27
2019-01-16T14:40:56.940Z,20.67
2019-01-16T14:43:31.474Z,19.00
2019-01-16T14:46:15.075Z,20.60
2019-01-16T14:48:46.224Z,21.47
2019-01-16T14:51:15.736Z,20.97
2019-01-16T14:53:44.119Z,21.63
2019-01-16T14:56:29.281Z,20.60
2019-01-16T14:59:14.801Z,19.97
2019-01-16T15:01:51.808Z,19.60
2019-01-16T15:04:35.273Z,20.67
2019-01-16T15:07:03.604Z,21.00
2019-01-16T15:09:37.911Z,20.40
2019-01-16T15:12:18.282Z,20.93
2019-01-16T15:14:52.779Z,21.67
2019-01-16T15:17:26.862Z,21.57
2019-01-16T15:19:58.228Z,21.67
2019-01-16T15:22:26.506Z,20.40
2019-01-16T15:25:03.858Z,20.47
2019-01-16T15:27:40.856Z,19.43
2019-01-16T15:30:29.320Z,20.27
2019-01-16T15:33:21.823Z,20.23
2019-01-16T15:35:59.314Z,20.10
2019-01-16T15:38:33.366Z,20.77
2019-01-16T15:41:01.678Z,20.33
2019-01-16T15:43:29.931Z,19.77
2019-01-16T15:46:13.580Z,19.37
2019-01-16T15:48:50.941Z,20.37
2019-01-16T15:51:22.457Z,21.10
2019-01-16T15:53:50.789Z,21.87
2019-01-16T15:56:34.464Z,19.30
2019-01-16T15:59:02.827Z,19.20
2019-01-16T16:01:38.336Z,18.63
2019-01-16T16:04:06.641Z,21.10
2019-01-16T16:06:34.947Z,19.73
2019-01-16T16:09:03.271Z,20.67
2019-01-16T16:11:39.060Z,19.43
2019-01-16T16:14:07.355Z,19.90
2019-01-16T16:16:44.506Z,21.73
2019-01-16T16:19:15.365Z,21.50
2019-01-16T16:21:52.423Z,21.17
2019-01-16T16:24:29.763Z,21.17
2019-01-16T16:27:10.230Z,19.37
2019-01-16T16:29:50.220Z,20.77
2019-01-16T16:32:21.349Z,21.93
2019-01-16T16:34:52.892Z,24.10
2019-01-16T16:37:27.190Z,22.53
2019-01-16T16:40:01.818Z,21.70
2019-01-16T16:42:43.255Z,23.53
2019-01-16T16:45:15.643Z,22.60
2019-01-16T16:47:44.020Z,23.07
2019-01-16T16:50:15.592Z,23.77
2019-01-16T16:52:46.821Z,24.70
2019-01-16T16:55:15.165Z,25.53
2019-01-16T16:57:47.533Z,24.93
2019-01-16T17:00:32.235Z,24.33
2019-01-16T17:03:15.893Z,21.17
2019-01-16T17:06:01.248Z,22.17
2019-01-16T17:08:46.925Z,22.27
2019-01-16T17:11:15.420Z,22.43
2019-01-16T17:13:56.004Z,22.87
2019-01-16T17:16:33.653Z,20.27
2019-01-16T17:19:17.739Z,21.30
2019-01-16T17:21:46.107Z,20.63
2019-01-16T17:24:14.491Z,22.13
2019-01-16T17:26:45.697Z,21.97
2019-01-16T17:29:14.055Z,20.50
2019-01-16T17:31:59.074Z,21.50
2019-01-16T17:34:36.224Z,24.00
2019-01-16T17:37:19.921Z,23.73
2019-01-16T17:40:05.312Z,22.57
2019-01-16T17:42:40.360Z,22.53
2019-01-16T17:45:25.268Z,21.27
2019-01-16T17:48:10.795Z,22.80
2019-01-16T17:50:56.082Z,20.87
2019-01-16T17:53:33.626Z,23.83
2019-01-16T17:56:17.279Z,21.90
2019-01-16T17:58:51.529Z,21.27
2019-01-16T18:01:28.880Z,21.97
2019-01-16T18:04:03.120Z,21.87
2019-01-16T18:06:48.417Z,22.70
2019-01-16T18:09:22.965Z,21.53
2019-01-16T18:12:03.517Z,20.73
2019-01-16T18:14:35.150Z,21.23
2019-01-16T18:17:03.515Z,19.30
2019-01-16T18:19:43.724Z,22.07
2019-01-16T18:22:21.073Z,20.87
2019-01-16T18:24:51.941Z,21.67
2019-01-16T18:27:37.235Z,20.10
2019-01-16T18:30:09.388Z,21.37
2019-01-16T18:32:42.552Z,19.83
2019-01-16T18:35:10.973Z,20.90
2019-01-16T18:37:55.934Z,19.73
2019-01-16T18:40:36.567Z,18.30
2019-01-16T18:43:17.442Z,19.40
2019-01-16T18:45:45.742Z,18.17
2019-01-16T18:48:17.127Z,18.90
2019-01-16T18:50:51.331Z,19.53
2019-01-16T18:53:19.663Z,19.03
2019-01-16T18:55:47.894Z,18.13
2019-01-16T18:58:18.929Z,17.87
2019-01-16T19:00:49.974Z,17.07
2019-01-16T19:03:30.454Z,17.53
2019-01-16T19:06:01.300Z,16.40
2019-01-16T19:08:44.760Z,17.17
2019-01-16T19:11:15.660Z,17.37
2019-01-16T19:14:00.828Z,16.67
2019-01-16T19:16:46.018Z,17.07
2019-01-16T19:19:26.620Z,17.07
2019-01-16T19:21:55.265Z,15.90
2019-01-16T19:24:26.478Z,16.77
2019-01-16T19:27:11.824Z,15.90
2019-01-16T19:29:48.939Z,15.03
2019-01-16T19:32:23.087Z,15.97
2019-01-16T19:34:51.473Z,16.30
2019-01-16T19:37:38.077Z,14.93
2019-01-16T19:40:13.327Z,17.73
2019-01-16T19:42:44.642Z,14.80
2019-01-16T19:45:18.541Z,14.00
2019-01-16T19:47:46.928Z,14.20
2019-01-16T19:50:30.685Z,15.07
2019-01-16T19:53:04.852Z,15.43
2019-01-16T19:55:46.979Z,14.73
2019-01-16T19:58:32.225Z,14.77
2019-01-16T20:01:17.027Z,14.03
2019-01-16T20:03:45.332Z,15.57
2019-01-16T20:06:16.654Z,14.60
2019-01-16T20:08:45.119Z,15.10
2019-01-16T20:11:13.470Z,15.50
2019-01-16T20:13:56.977Z,13.70
2019-01-16T20:16:25.411Z,14.00
2019-01-16T20:19:06.037Z,13.37
2019-01-16T20:21:52.656Z,12.90
2019-01-16T20:24:26.747Z,14.93
2019-01-16T20:27:01.168Z,13.97
2019-01-16T20:29:38.617Z,12.63
2019-01-16T20:32:23.829Z,14.13
2019-01-16T20:35:09.660Z,12.73
2019-01-16T20:37:34.479Z,12.20
2019-01-16T20:40:18.121Z,12.87
2019-01-16T20:42:46.505Z,12.00
2019-01-16T20:45:29.951Z,13.27
2019-01-16T20:48:15.484Z,13.63
2019-01-16T20:50:43.841Z,13.77
2019-01-16T20:53:17.512Z,11.83
2019-01-16T20:55:45.938Z,12.30
2019-01-16T20:58:17.494Z,12.77
2019-01-16T21:00:48.340Z,13.00
2019-01-16T21:03:33.991Z,11.80
2019-01-16T21:06:19.243Z,12.17
2019-01-16T21:09:06.773Z,11.80
2019-01-16T21:11:35.599Z,12.07
2019-01-16T21:14:04.608Z,12.00
2019-01-16T21:16:50.608Z,12.10
2019-01-16T21:19:27.919Z,13.60
2019-01-16T21:21:57.718Z,12.60
2019-01-16T21:24:44.938Z,11.67
2019-01-16T21:27:19.498Z,12.47
2019-01-16T21:30:04.627Z,11.17
2019-01-16T21:32:33.952Z,11.33
2019-01-16T21:35:20.207Z,11.87
2019-01-16T21:37:51.220Z,11.77
2019-01-16T21:40:25.560Z,11.83
2019-01-16T21:43:02.913Z,11.83
2019-01-16T21:45:35.567Z,11.23
2019-01-16T21:48:20.993Z,11.93
2019-01-16T21:50:52.836Z,11.43
2019-01-16T21:53:30.297Z,11.40
2019-01-16T21:56:00.038Z,12.00
2019-01-16T21:58:45.198Z,10.30
2019-01-16T22:01:14.709Z,11.40
2019-01-16T22:03:53.376Z,12.30
2019-01-16T22:06:24.777Z,12.23
2019-01-16T22:08:55.984Z,12.80
2019-01-16T22:11:34.035Z,11.87
2019-01-16T22:14:11.804Z,11.00
2019-01-16T22:16:43.141Z,11.43
2019-01-16T22:19:29.582Z,11.57
2019-01-16T22:22:13.134Z,10.90
2019-01-16T22:24:44.515Z,10.90
2019-01-16T22:27:24.534Z,11.70
2019-01-16T22:29:52.865Z,12.20
2019-01-16T22:32:27.127Z,11.67
2019-01-16T22:34:58.163Z,9.70
2019-01-16T22:37:26.456Z,12.83
2019-01-16T22:39:54.818Z,9.97
2019-01-16T22:42:38.186Z,10.70
2019-01-16T22:45:19.026Z,9.73
2019-01-16T22:47:50.661Z,10.20
2019-01-16T22:50:21.580Z,10.10
2019-01-16T22:52:56.213Z,10.20
2019-01-16T22:55:42.816Z,10.13
2019-01-16T22:58:23.622Z,10.53
2019-01-16T23:00:58.394Z,11.30
2019-01-16T23:03:30.172Z,11.10
2019-01-16T23:06:01.411Z,11.10
2019-01-16T23:08:38.982Z,10.87
2019-01-16T23:11:10.723Z,10.87
2019-01-16T23:13:39.233Z,11.67
2019-01-16T23:16:24.851Z,12.00
2019-01-16T23:19:09.485Z,11.50
2019-01-16T23:21:46.958Z,12.43
2019-01-16T23:24:33.430Z,11.57
2019-01-16T23:27:01.876Z,12.53
2019-01-16T23:29:36.049Z,12.23
2019-01-16T23:32:10.413Z,11.10
2019-01-16T23:34:38.728Z,10.87
2019-01-16T23:37:07.042Z,12.47
2019-01-16T23:39:44.277Z,10.90
2019-01-16T23:42:12.575Z,12.57
2019-01-16T23:44:50.332Z,11.23
2019-01-16T23:47:24.888Z,11.80
2019-01-16T23:49:58.943Z,11.40
2019-01-16T23:52:39.304Z,11.77
2019-01-16T23:55:13.798Z,11.57
2019-01-16T23:57:53.923Z,10.77
